createdAt,value
2018-09-25T00:01:56.169Z,99.90
2018-09-25T00:04:48.879Z,99.90
2018-09-25T00:07:22.437Z,99.90
2018-09-25T00:09:56.076Z,99.90
2018-09-25T00:12:30.308Z,99.90
2018-09-25T00:15:10.878Z,99.90
2018-09-25T00:17:44.367Z,99.90
2018-09-25T00:20:18.393Z,99.90
2018-09-25T00:22:52.201Z,99.90
2018-09-25T00:25:25.976Z,99.90
2018-09-25T00:27:59.646Z,99.90
2018-09-25T00:30:33.394Z,99.90
2018-09-25T00:33:13.797Z,99.90
2018-09-25T00:35:47.496Z,99.90
2018-09-25T00:38:21.219Z,99.90
2018-09-25T00:40:54.957Z,99.90
2018-09-25T00:43:28.622Z,99.90
2018-09-25T00:46:02.368Z,99.90
2018-09-25T00:48:36.206Z,99.90
2018-09-25T00:51:09.924Z,99.90
2018-09-25T00:53:45.398Z,99.90
2018-09-25T00:56:19.153Z,99.90
2018-09-25T00:58:52.882Z,99.90
2018-09-25T01:01:27.351Z,99.90
2018-09-25T01:04:08.800Z,99.90
2018-09-25T01:06:42.231Z,99.90
2018-09-25T01:09:15.743Z,99.90
2018-09-25T01:11:49.402Z,99.90
2018-09-25T01:14:28.375Z,99.90
2018-09-25T01:17:01.988Z,99.90
2018-09-25T01:19:35.660Z,99.90
2018-09-25T01:22:09.172Z,99.90
2018-09-25T01:24:47.194Z,99.90
2018-09-25T01:27:20.944Z,99.90
2018-09-25T01:29:54.390Z,99.90
2018-09-25T01:32:28.251Z,99.90
2018-09-25T01:35:01.852Z,99.90
2018-09-25T01:37:35.505Z,99.90
2018-09-25T01:40:09.140Z,99.90
2018-09-25T01:42:42.868Z,99.90
2018-09-25T01:45:21.245Z,99.90
2018-09-25T01:47:55.016Z,99.90
2018-09-25T01:50:29.064Z,99.90
2018-09-25T01:53:02.666Z,99.90
2018-09-25T01:55:36.440Z,99.90
2018-09-25T01:58:09.987Z,99.90
2018-09-25T02:00:43.660Z,99.90
2018-09-25T02:03:17.120Z,99.90
2018-09-25T02:05:50.559Z,99.90
2018-09-25T02:08:24.195Z,99.90
2018-09-25T02:10:57.714Z,99.90
2018-09-25T02:13:34.616Z,99.90
2018-09-25T02:16:08.258Z,99.90
2018-09-25T02:18:41.895Z,99.90
2018-09-25T02:21:15.320Z,99.90
2018-09-25T02:23:48.925Z,99.90
2018-09-25T02:26:22.692Z,99.90
2018-09-25T02:28:56.195Z,99.90
2018-09-25T02:31:29.947Z,99.90
2018-09-25T02:34:06.536Z,99.90
2018-09-25T02:36:40.044Z,99.90
2018-09-25T02:39:15.432Z,99.90
2018-09-25T02:41:49.239Z,99.90
2018-09-25T02:44:22.906Z,99.90
2018-09-25T02:46:56.543Z,99.90
2018-09-25T02:49:30.260Z,99.90
2018-09-25T02:52:04.073Z,99.90
2018-09-25T02:54:42.482Z,99.90
2018-09-25T02:57:16.145Z,99.90
2018-09-25T02:59:49.964Z,99.90
2018-09-25T03:02:23.708Z,99.90
2018-09-25T03:05:00.437Z,99.90
2018-09-25T03:07:34.255Z,99.90
2018-09-25T03:10:07.988Z,99.90
2018-09-25T03:12:41.737Z,99.90
2018-09-25T03:15:19.671Z,99.90
2018-09-25T03:17:53.216Z,99.90
2018-09-25T03:20:26.888Z,99.90
2018-09-25T03:23:04.075Z,99.90
2018-09-25T03:25:37.833Z,99.90
2018-09-25T03:28:11.514Z,99.90
2018-09-25T03:30:45.281Z,99.90
2018-09-25T03:33:24.993Z,99.90
2018-09-25T03:35:58.656Z,99.90
2018-09-25T03:38:32.074Z,99.90
2018-09-25T03:41:05.620Z,99.90
2018-09-25T03:43:49.644Z,99.90
2018-09-25T03:46:23.352Z,99.90
2018-09-25T03:48:57.248Z,99.90
2018-09-25T03:51:30.970Z,99.90
2018-09-25T03:54:07.816Z,99.90
2018-09-25T03:56:41.507Z,99.90
2018-09-25T03:59:15.274Z,99.90
2018-09-25T04:01:49.116Z,99.90
2018-09-25T04:04:22.788Z,99.90
2018-09-25T04:06:56.728Z,99.90
2018-09-25T04:09:30.965Z,99.90
2018-09-25T04:12:04.808Z,99.90
2018-09-25T04:14:45.196Z,99.90
2018-09-25T04:17:18.920Z,99.90
2018-09-25T04:19:52.456Z,99.90
2018-09-25T04:22:26.906Z,99.90
2018-09-25T04:25:02.407Z,99.90
2018-09-25T04:27:36.043Z,99.90
2018-09-25T04:30:10.178Z,99.90
2018-09-25T04:32:44.081Z,99.90
2018-09-25T04:35:21.341Z,99.90
2018-09-25T04:37:54.874Z,99.90
2018-09-25T04:40:28.314Z,99.90
2018-09-25T04:43:02.715Z,99.90
2018-09-25T04:45:36.324Z,99.90
2018-09-25T04:48:10.119Z,99.90
2018-09-25T04:50:43.661Z,99.90
2018-09-25T04:53:17.419Z,99.90
2018-09-25T04:55:50.914Z,99.90
2018-09-25T04:58:24.900Z,99.90
2018-09-25T05:00:58.386Z,99.90
2018-09-25T05:03:33.762Z,99.90
2018-09-25T05:06:07.411Z,99.90
2018-09-25T05:08:41.767Z,99.90
2018-09-25T05:11:15.426Z,99.90
2018-09-25T05:13:51.629Z,99.90
2018-09-25T05:16:25.457Z,99.90
2018-09-25T05:18:59.073Z,99.90
2018-09-25T05:21:32.695Z,99.90
2018-09-25T05:24:09.981Z,99.90
2018-09-25T05:26:43.754Z,99.90
2018-09-25T05:29:17.865Z,99.90
2018-09-25T05:31:51.400Z,99.90
2018-09-25T05:34:27.764Z,99.90
2018-09-25T05:37:03.423Z,99.90
2018-09-25T05:39:37.019Z,99.90
2018-09-25T05:42:10.383Z,99.90
2018-09-25T05:44:44.749Z,99.90
2018-09-25T05:47:20.076Z,99.90
2018-09-25T05:49:55.908Z,99.90
2018-09-25T05:52:31.378Z,99.90
2018-09-25T05:55:05.076Z,99.90
2018-09-25T05:57:38.782Z,99.90
2018-09-25T06:00:13.078Z,99.90
2018-09-25T06:02:46.830Z,99.90
2018-09-25T06:05:32.882Z,99.90
2018-09-25T06:08:08.181Z,99.90
2018-09-25T06:10:42.416Z,99.90
2018-09-25T06:13:20.540Z,99.90
2018-09-25T06:15:54.048Z,99.90
2018-09-25T06:18:27.645Z,99.90
2018-09-25T06:24:18.332Z,99.90
2018-09-25T06:26:51.945Z,99.90
2018-09-25T06:29:25.206Z,99.90
2018-09-25T06:31:58.670Z,99.90
2018-09-25T06:34:35.094Z,99.90
2018-09-25T06:37:08.721Z,99.90
2018-09-25T06:39:42.862Z,99.90
2018-09-25T06:42:16.409Z,99.90
2018-09-25T06:44:49.753Z,99.90
2018-09-25T06:47:23.336Z,99.90
2018-09-25T06:49:57.051Z,99.90
2018-09-25T06:52:31.607Z,99.90
2018-09-25T06:55:05.108Z,99.90
2018-09-25T06:57:38.697Z,99.90
2018-09-25T07:00:12.389Z,99.90
2018-09-25T07:02:45.836Z,99.90
2018-09-25T07:05:23.016Z,99.90
2018-09-25T07:08:04.553Z,99.90
2018-09-25T07:10:39.512Z,99.90
2018-09-25T07:13:25.705Z,99.90
2018-09-25T07:15:59.606Z,99.90
2018-09-25T07:18:33.402Z,99.90
2018-09-25T07:21:07.032Z,99.90
2018-09-25T07:23:42.737Z,99.90
2018-09-25T07:26:16.450Z,99.90
2018-09-25T07:28:49.912Z,99.90
2018-09-25T07:31:24.226Z,99.90
2018-09-25T07:34:04.366Z,99.90
2018-09-25T07:36:38.185Z,99.90
2018-09-25T07:39:14.172Z,99.90
2018-09-25T07:41:47.628Z,99.90
2018-09-25T07:44:21.191Z,99.90
2018-09-25T07:46:55.217Z,99.90
2018-09-25T07:49:28.540Z,99.90
2018-09-25T07:52:02.099Z,99.90
2018-09-25T07:54:35.716Z,99.90
2018-09-25T07:57:09.519Z,99.90
2018-09-25T07:59:43.291Z,99.90
2018-09-25T08:02:16.847Z,99.90
2018-09-25T08:04:54.437Z,99.90
2018-09-25T08:07:28.280Z,99.90
2018-09-25T08:10:02.748Z,99.90
2018-09-25T08:12:36.590Z,99.90
2018-09-25T08:15:14.491Z,99.90
2018-09-25T08:17:47.915Z,99.90
2018-09-25T08:20:21.437Z,99.90
2018-09-25T08:22:54.954Z,99.90
2018-09-25T08:25:28.462Z,99.90
2018-09-25T08:28:02.461Z,99.90
2018-09-25T08:30:35.834Z,99.90
2018-09-25T08:33:09.593Z,99.90
2018-09-25T08:35:43.286Z,99.90
2018-09-25T08:38:17.101Z,99.90
2018-09-25T08:40:50.651Z,99.90
2018-09-25T08:43:27.102Z,99.90
2018-09-25T08:46:00.842Z,99.90
2018-09-25T08:48:34.442Z,99.90
2018-09-25T08:51:07.921Z,99.90
2018-09-25T08:53:41.497Z,99.90
2018-09-25T08:56:15.066Z,99.90
2018-09-25T08:58:48.813Z,99.90
2018-09-25T09:01:22.631Z,99.90
2018-09-25T09:04:02.453Z,99.90
2018-09-25T09:06:35.943Z,99.90
2018-09-25T09:09:14.981Z,99.90
2018-09-25T09:11:49.032Z,99.90
2018-09-25T09:14:25.783Z,99.90
2018-09-25T09:16:59.436Z,99.90
2018-09-25T09:19:33.346Z,99.90
2018-09-25T09:22:06.946Z,99.90
2018-09-25T09:24:50.558Z,99.90
2018-09-25T09:27:24.170Z,99.90
2018-09-25T09:29:57.980Z,99.90
2018-09-25T09:32:31.587Z,99.90
2018-09-25T09:35:10.105Z,99.90
2018-09-25T09:37:45.786Z,99.90
2018-09-25T09:40:19.408Z,99.90
2018-09-25T09:42:53.291Z,99.90
2018-09-25T09:45:27.189Z,99.90
2018-09-25T09:48:00.677Z,99.90
2018-09-25T09:50:34.283Z,99.90
2018-09-25T09:53:12.923Z,99.90
2018-09-25T09:55:47.018Z,99.90
2018-09-25T09:58:20.916Z,99.90
2018-09-25T10:00:54.383Z,99.90
2018-09-25T10:03:33.953Z,99.90
2018-09-25T10:06:07.684Z,99.90
2018-09-25T10:08:41.132Z,99.90
2018-09-25T10:11:15.767Z,99.90
2018-09-25T10:13:49.354Z,99.90
2018-09-25T10:16:22.970Z,99.90
2018-09-25T10:18:56.512Z,99.90
2018-09-25T10:21:29.886Z,99.90
2018-09-25T10:24:07.998Z,99.90
2018-09-25T10:26:41.461Z,99.90
2018-09-25T10:29:15.044Z,99.30
2018-09-25T10:31:48.772Z,92.90
2018-09-25T10:34:22.424Z,91.50
2018-09-25T10:36:56.297Z,92.00
2018-09-25T10:39:29.965Z,92.10
2018-09-25T10:42:04.873Z,90.40
2018-09-25T10:44:38.763Z,92.10
2018-09-25T10:47:13.384Z,90.60
2018-09-25T10:49:46.885Z,86.40
2018-09-25T10:52:20.577Z,88.20
2018-09-25T10:54:54.124Z,86.60
2018-09-25T10:57:27.647Z,84.30
2018-09-25T11:00:01.308Z,86.60
2018-09-25T11:02:35.411Z,88.60
2018-09-25T11:05:09.091Z,89.10
2018-09-25T11:07:42.810Z,88.20
2018-09-25T11:10:17.171Z,87.70
2018-09-25T11:12:51.630Z,85.40
2018-09-25T11:15:25.369Z,84.10
2018-09-25T11:17:59.088Z,81.90
2018-09-25T11:20:32.515Z,85.70
2018-09-25T11:23:06.786Z,80.90
2018-09-25T11:25:40.290Z,80.40
2018-09-25T11:28:13.999Z,81.30
2018-09-25T11:30:48.011Z,83.00
2018-09-25T11:33:26.178Z,80.20
2018-09-25T11:36:00.618Z,77.70
2018-09-25T11:38:34.274Z,79.70
2018-09-25T11:41:07.734Z,77.60
2018-09-25T11:43:41.205Z,78.30
2018-09-25T11:46:14.838Z,80.70
2018-09-25T11:48:48.344Z,82.80
2018-09-25T11:51:22.304Z,84.70
2018-09-25T11:53:57.831Z,84.70
2018-09-25T11:56:31.467Z,87.10
2018-09-25T11:59:05.125Z,86.00
2018-09-25T12:01:38.953Z,84.70
2018-09-25T12:04:12.782Z,86.30
2018-09-25T12:06:46.461Z,86.80
2018-09-25T12:09:19.905Z,84.40
2018-09-25T12:11:53.480Z,86.60
2018-09-25T12:14:32.596Z,80.80
2018-09-25T12:17:06.053Z,80.80
2018-09-25T12:19:39.678Z,83.10
2018-09-25T12:24:46.892Z,81.50
2018-09-25T12:27:20.326Z,81.00
2018-09-25T12:29:53.955Z,80.30
2018-09-25T12:32:28.487Z,77.00
2018-09-25T12:35:05.597Z,75.60
2018-09-25T12:37:39.399Z,77.00
2018-09-25T12:40:12.847Z,78.70
2018-09-25T12:42:46.397Z,78.40
2018-09-25T12:45:28.018Z,79.10
2018-09-25T12:48:01.740Z,80.30
2018-09-25T12:50:35.457Z,81.60
2018-09-25T12:53:09.208Z,82.70
2018-09-25T12:55:42.842Z,85.20
2018-09-25T12:58:17.597Z,87.40
2018-09-25T13:00:51.088Z,86.60
2018-09-25T13:03:30.880Z,84.80
2018-09-25T13:06:04.692Z,85.60
2018-09-25T13:08:38.457Z,85.50
2018-09-25T13:11:12.198Z,84.50
2018-09-25T13:13:58.062Z,81.50
2018-09-25T13:16:32.581Z,85.00
2018-09-25T13:19:06.332Z,85.10
2018-09-25T13:21:39.850Z,85.60
2018-09-25T13:24:13.394Z,84.40
2018-09-25T13:26:47.092Z,84.60
2018-09-25T13:29:21.340Z,82.20
2018-09-25T13:31:55.157Z,80.80
2018-09-25T13:34:28.752Z,78.80
2018-09-25T13:37:02.296Z,79.40
2018-09-25T13:39:36.014Z,73.20
2018-09-25T13:42:10.498Z,72.60
2018-09-25T13:44:49.656Z,72.10
2018-09-25T13:47:24.124Z,68.40
2018-09-25T13:49:58.474Z,68.40
2018-09-25T13:52:31.924Z,68.60
2018-09-25T13:55:05.569Z,68.30
2018-09-25T13:57:39.062Z,72.60
2018-09-25T14:00:13.005Z,70.30
2018-09-25T14:02:46.403Z,66.90
2018-09-25T14:05:20.067Z,64.30
2018-09-25T14:07:53.557Z,67.90
2018-09-25T14:10:27.267Z,69.90
2018-09-25T14:13:00.692Z,70.00
2018-09-25T14:15:34.874Z,69.20
2018-09-25T14:18:08.535Z,68.90
2018-09-25T14:20:42.232Z,70.50
2018-09-25T14:23:18.426Z,68.90
2018-09-25T14:25:52.483Z,66.70
2018-09-25T14:28:26.107Z,68.70
2018-09-25T14:30:59.932Z,68.50
2018-09-25T14:33:49.876Z,67.40
2018-09-25T14:36:23.584Z,68.10
2018-09-25T14:38:57.573Z,64.50
2018-09-25T14:41:31.321Z,63.20
2018-09-25T14:44:07.519Z,62.80
2018-09-25T14:46:41.460Z,64.20
2018-09-25T14:49:15.341Z,66.00
2018-09-25T14:51:49.665Z,64.30
2018-09-25T14:54:26.851Z,62.80
2018-09-25T14:57:00.853Z,62.80
2018-09-25T14:59:34.617Z,62.40
2018-09-25T15:02:08.453Z,63.00
2018-09-25T15:04:42.283Z,64.10
2018-09-25T15:07:16.030Z,61.80
2018-09-25T15:09:49.828Z,63.30
2018-09-25T15:12:23.611Z,62.40
2018-09-25T15:15:01.603Z,65.60
2018-09-25T15:17:35.606Z,64.00
2018-09-25T15:20:09.388Z,65.30
2018-09-25T15:22:43.571Z,63.40
2018-09-25T15:25:20.627Z,65.20
2018-09-25T15:27:54.243Z,65.20
2018-09-25T15:30:28.377Z,62.60
2018-09-25T15:33:02.231Z,62.70
2018-09-25T15:35:37.800Z,64.60
2018-09-25T15:40:53.846Z,63.20
2018-09-25T15:43:34.877Z,62.00
2018-09-25T15:46:08.870Z,61.00
2018-09-25T15:48:42.444Z,59.90
2018-09-25T15:51:20.095Z,60.50
2018-09-25T15:54:04.963Z,60.50
2018-09-25T15:56:38.850Z,62.30
2018-09-25T15:59:18.716Z,62.30
2018-09-25T16:01:57.057Z,61.50
2018-09-25T16:04:34.878Z,61.00
2018-09-25T16:07:09.126Z,61.90
2018-09-25T16:09:43.470Z,63.80
2018-09-25T16:17:56.841Z,64.60
2018-09-25T16:20:31.078Z,64.60
2018-09-25T16:23:06.718Z,61.60
2018-09-25T16:25:41.213Z,62.60
2018-09-25T16:28:15.669Z,65.10
2018-09-25T16:30:51.103Z,67.90
2018-09-25T16:36:22.448Z,67.80
2018-09-25T16:39:02.865Z,69.00
2018-09-25T16:41:37.979Z,68.70
2018-09-25T16:44:19.582Z,69.70
2018-09-25T16:46:59.558Z,71.00
2018-09-25T16:49:35.117Z,71.70
2018-09-25T16:52:13.216Z,70.00
2018-09-25T16:57:59.519Z,74.00
2018-09-25T17:22:34.817Z,91.60
2018-09-25T17:28:11.614Z,95.60
2018-09-25T17:30:45.315Z,98.40
2018-09-25T17:36:40.191Z,99.90
2018-09-25T17:39:20.229Z,99.90
2018-09-25T17:42:15.939Z,99.90
2018-09-25T17:45:02.463Z,99.90
2018-09-25T17:47:37.904Z,99.90
2018-09-25T17:50:16.769Z,99.90
2018-09-25T17:52:55.815Z,99.90
2018-09-25T17:55:31.299Z,99.90
2018-09-25T17:58:05.397Z,99.90
2018-09-25T18:00:39.518Z,99.90
2018-09-25T18:03:28.229Z,99.90
2018-09-25T18:06:05.901Z,99.90
2018-09-25T18:08:41.838Z,99.90
2018-09-25T18:11:15.946Z,99.90
2018-09-25T18:19:53.100Z,99.90
2018-09-25T18:22:27.513Z,99.90
2018-09-25T18:28:07.979Z,99.90
2018-09-25T18:30:43.145Z,99.90
2018-09-25T18:33:30.876Z,99.90
2018-09-25T18:36:04.805Z,99.90
2018-09-25T18:38:38.867Z,99.90
2018-09-25T18:41:13.150Z,99.90
2018-09-25T18:43:49.262Z,99.90
2018-09-25T18:46:24.980Z,99.90
2018-09-25T18:48:59.013Z,99.90
2018-09-25T18:51:33.224Z,99.90
2018-09-25T18:57:06.207Z,99.90
2018-09-25T18:59:40.770Z,99.90
2018-09-25T19:02:14.691Z,99.90
2018-09-25T19:04:58.627Z,99.90
2018-09-25T19:07:32.695Z,99.90
2018-09-25T19:10:07.088Z,99.90
2018-09-25T19:12:44.382Z,99.90
2018-09-25T19:15:26.793Z,99.90
2018-09-25T19:18:00.935Z,99.90
2018-09-25T19:20:35.038Z,99.90
2018-09-25T19:23:11.073Z,99.90
2018-09-25T19:25:45.115Z,99.90
2018-09-25T19:28:19.799Z,99.90
2018-09-25T19:30:53.759Z,99.90
2018-09-25T19:33:28.074Z,99.90
2018-09-25T19:36:02.223Z,99.90
2018-09-25T19:38:36.157Z,99.90
2018-09-25T19:41:10.111Z,99.90
2018-09-25T19:43:48.176Z,99.90
2018-09-25T19:46:21.953Z,99.90
2018-09-25T19:48:55.881Z,99.90
2018-09-25T19:51:30.037Z,99.90
2018-09-25T19:54:05.108Z,99.90
2018-09-25T19:56:39.265Z,99.90
2018-09-25T19:59:14.205Z,99.90
2018-09-25T20:01:48.270Z,99.90
2018-09-25T20:04:22.914Z,99.90
2018-09-25T20:06:56.739Z,99.90
2018-09-25T20:09:30.628Z,99.90
2018-09-25T20:12:04.643Z,99.90
2018-09-25T20:14:38.664Z,99.90
2018-09-25T20:17:12.777Z,99.90
2018-09-25T20:19:46.977Z,99.90
2018-09-25T20:22:21.279Z,99.90
2018-09-25T20:25:00.149Z,99.90
2018-09-25T20:27:36.407Z,99.90
2018-09-25T20:30:12.291Z,99.90
2018-09-25T20:32:46.159Z,99.90
2018-09-25T20:35:24.227Z,99.90
2018-09-25T20:37:57.999Z,99.90
2018-09-25T20:40:31.865Z,99.90
2018-09-25T20:43:05.816Z,99.90
2018-09-25T20:45:39.676Z,99.90
2018-09-25T20:48:13.485Z,99.90
2018-09-25T20:50:47.160Z,99.90
2018-09-25T20:53:21.999Z,99.90
2018-09-25T20:55:55.665Z,99.90
2018-09-25T20:58:29.999Z,99.90
2018-09-25T21:01:03.667Z,99.90
2018-09-25T21:03:37.264Z,99.90
2018-09-25T21:06:10.770Z,99.90
2018-09-25T21:08:44.635Z,99.90
2018-09-25T21:11:18.503Z,99.90
2018-09-25T21:13:58.522Z,99.90
2018-09-25T21:16:32.835Z,99.90
2018-09-25T21:19:06.561Z,99.90
2018-09-25T21:21:40.117Z,99.90
2018-09-25T21:24:15.924Z,99.90
2018-09-25T21:26:49.750Z,99.90
2018-09-25T21:29:24.531Z,99.90
2018-09-25T21:31:58.685Z,99.90
2018-09-25T21:34:33.314Z,99.90
2018-09-25T21:37:06.839Z,99.90
2018-09-25T21:39:40.758Z,99.90
2018-09-25T21:42:14.581Z,99.90
2018-09-25T21:44:48.420Z,99.90
2018-09-25T21:47:21.867Z,99.90
2018-09-25T21:49:55.304Z,99.90
2018-09-25T21:52:28.982Z,99.90
2018-09-25T21:55:06.047Z,99.90
2018-09-25T21:57:39.754Z,99.90
2018-09-25T22:00:13.632Z,99.90
2018-09-25T22:02:47.356Z,99.90
2018-09-25T22:05:21.166Z,99.90
2018-09-25T22:07:54.642Z,99.90
2018-09-25T22:10:28.391Z,99.90
2018-09-25T22:13:02.105Z,99.90
2018-09-25T22:15:36.170Z,99.90
2018-09-25T22:18:09.630Z,99.90
2018-09-25T22:20:43.210Z,99.90
2018-09-25T22:23:17.859Z,99.90
2018-09-25T22:25:51.297Z,99.90
2018-09-25T22:28:24.805Z,99.90
2018-09-25T22:30:58.289Z,99.90
2018-09-25T22:33:31.684Z,99.90
2018-09-25T22:36:05.103Z,99.90
2018-09-25T22:38:38.537Z,99.90
2018-09-25T22:41:12.219Z,99.90
2018-09-25T22:43:45.591Z,99.90
2018-09-25T22:46:19.155Z,99.90
2018-09-25T22:48:52.809Z,99.90
2018-09-25T22:51:26.473Z,99.90
2018-09-25T22:54:00.853Z,99.90
2018-09-25T22:56:34.322Z,99.90
2018-09-25T22:59:07.675Z,99.90
2018-09-25T23:01:41.194Z,99.90
2018-09-25T23:04:17.914Z,99.90
2018-09-25T23:06:51.763Z,99.90
2018-09-25T23:09:25.369Z,99.90
2018-09-25T23:11:58.814Z,99.90
2018-09-25T23:14:39.061Z,99.90
2018-09-25T23:17:12.643Z,99.90
2018-09-25T23:19:47.058Z,99.90
2018-09-25T23:22:20.470Z,99.90
2018-09-25T23:25:05.786Z,99.90
2018-09-25T23:27:39.926Z,99.90
2018-09-25T23:30:13.380Z,99.90
2018-09-25T23:32:46.996Z,99.90
2018-09-25T23:35:33.764Z,99.90
2018-09-25T23:38:07.256Z,99.90
2018-09-25T23:41:00.704Z,99.90
2018-09-25T23:43:41.270Z,99.90
2018-09-25T23:46:23.850Z,99.90
2018-09-25T23:48:58.174Z,99.90
2018-09-25T23:51:35.820Z,99.90
2018-09-25T23:54:24.983Z,99.90
2018-09-25T23:57:58.554Z,99.90
